Terminal Aerodrome Forecast
Issued by NWS St Louis, MO

Home | Current Version | Previous Version | Text Only | Print | Product List | Glossary On
Versions: 1 2 3 4 5 6 7 8 9 10 11 12 13 14 15 16 17 18 19 20 21 22 23 24 25 26 27 28 29 30
000
FTUS43 KLSX 160721 AAA
TAFSTL
TAF AMD
KSTL 160721Z 1607/1712 15008KT P6SM SCT120 BKN250
     FM161000 15008KT P6SM VCSH BKN035
      TEMPO 1610/1614 4SM -SHRA BKN025
     FM161700 17010KT P6SM SCT040 BKN120
     FM170000 18010KT P6SM VCTS SCT050CB BKN120
     FM170600 19008KT P6SM SCT040 BKN120=

USA.gov is the U.S. government's official web portal to all federal, state and local government web resources and services.